Big Bear Station Historical Data
Daily Summary for April 19, 2019 Units:  English    Metric   Both
Next Day »
Daily Weekly Monthly Yearly Custom
  High: Low: Average:
Temperature: 72.0 °F 34.2 °F 51.1 °F
Dew Point: 42.7 °F 25.7 °F 34.5 °F
Humidity: 88% 26% 58%
Wind Speed: 6.3mph 0.0mph 1mph
Wind Gust: -999.0mph - -
Wind- - SSW
Pressure: 23.64 in 23.44 in -
Precipitation: 0.00 in    
Historical Graphs
 
 
Tabular Data for April 19, 2019
Time Temperature Dew Point Pressure Wind Wind Speed Wind Gust Humidity Rainfall Rate (Hourly)
00:11 41.0 °F 33.3 °F 23.64 in Calm   -999.0 mph 74% 0.00 in
00:26 40.6 °F 33.0 °F 23.64 in Calm   -999.0 mph 74% 0.00 in
00:42 40.1 °F 32.5 °F 23.64 in Calm   -999.0 mph 74% 0.00 in
00:57 39.6 °F 32.7 °F 23.64 in Calm   -999.0 mph 76% 0.00 in
01:12 39.4 °F 32.8 °F 23.64 in Calm   -999.0 mph 77% 0.00 in
01:27 39.2 °F 32.6 °F 23.63 in Calm   -999.0 mph 77% 0.00 in
01:42 38.7 °F 32.4 °F 23.63 in Calm   -999.0 mph 78% 0.00 in
01:58 38.5 °F 32.6 °F 23.62 in Calm   -999.0 mph 79% 0.00 in
02:13 38.5 °F 32.9 °F 23.62 in Calm   -999.0 mph 80% 0.00 in
02:28 37.9 °F 32.6 °F 23.61 in Calm   -999.0 mph 81% 0.00 in
02:43 37.6 °F 32.3 °F 23.61 in Calm   -999.0 mph 81% 0.00 in
02:59 37.2 °F 31.9 °F 23.61 in Calm   -999.0 mph 81% 0.00 in
03:14 37.0 °F 31.7 °F 23.60 in Calm   -999.0 mph 81% 0.00 in
03:29 36.9 °F 32.2 °F 23.59 in Calm   -999.0 mph 83% 0.00 in
03:44 36.3 °F 31.9 °F 23.59 in Calm   -999.0 mph 84% 0.00 in
03:59 36.1 °F 32.0 °F 23.59 in Calm   -999.0 mph 85% 0.00 in
04:15 36.1 °F 32.6 °F 23.59 in Calm   -999.0 mph 87% 0.00 in
04:30 35.4 °F 32.2 °F 23.58 in Calm   -999.0 mph 88% 0.00 in
04:45 35.4 °F 31.9 °F 23.58 in Calm   -999.0 mph 87% 0.00 in
05:00 35.2 °F 31.4 °F 23.58 in Calm   -999.0 mph 86% 0.00 in
05:15 34.7 °F 31.2 °F 23.58 in Calm   -999.0 mph 87% 0.00 in
05:31 34.5 °F 31.0 °F 23.58 in Calm   -999.0 mph 87% 0.00 in
05:46 34.5 °F 30.7 °F 23.58 in Calm   -999.0 mph 86% 0.00 in
06:01 34.2 °F 30.7 °F 23.58 in Calm   -999.0 mph 87% 0.00 in
06:16 34.5 °F 31.3 °F 23.57 in Calm   -999.0 mph 88% 0.00 in
06:31 34.5 °F 31.0 °F 23.57 in Calm   -999.0 mph 87% 0.00 in
06:47 34.2 °F 30.7 °F 23.57 in Calm   -999.0 mph 87% 0.00 in
07:02 34.9 °F 31.4 °F 23.58 in Calm   -999.0 mph 87% 0.00 in
07:17 35.8 °F 32.0 °F 23.58 in Calm   -999.0 mph 86% 0.00 in
07:32 35.8 °F 32.0 °F 23.58 in Calm   -999.0 mph 86% 0.00 in
07:47 37.0 °F 32.9 °F 23.58 in Calm   -999.0 mph 85% 0.00 in
08:03 38.3 °F 33.9 °F 23.58 in Calm   -999.0 mph 84% 0.00 in
08:18 39.2 °F 32.9 °F 23.58 in Calm   -999.0 mph 78% 0.00 in
08:33 40.8 °F 35.4 °F 23.58 in Calm   -999.0 mph 81% 0.00 in
08:48 43.3 °F 35.6 °F 23.58 in Calm   -999.0 mph 74% 0.00 in
09:04 46.4 °F 34.9 °F 23.57 in Calm   -999.0 mph 64% 0.00 in
09:19 52.2 °F 37.9 °F 23.57 in Calm   -999.0 mph 58% 0.00 in
09:34 53.8 °F 34.0 °F 23.57 in Calm   -999.0 mph 47% 0.00 in
09:49 57.2 °F 32.5 °F 23.57 in Calm   -999.0 mph 39% 0.00 in
10:04 58.8 °F 25.7 °F 23.56 in Calm   -999.0 mph 28% 0.00 in
10:20 61.2 °F 26.9 °F 23.56 in NW 4.7 mph -999.0 mph 27% 0.00 in
11:51 69.4 °F 33.0 °F 23.54 in WNW 4.7 mph -999.0 mph 26% 0.00 in
12:06 69.4 °F 34.0 °F 23.54 in NNW 5.8 mph -999.0 mph 27% 0.00 in
12:22 70.0 °F 37.1 °F 23.54 in NNW 3.7 mph -999.0 mph 30% 0.00 in
12:37 72.0 °F 38.9 °F 23.54 in NNE 2.7 mph -999.0 mph 30% 0.00 in
12:52 71.4 °F 36.6 °F 23.54 in NW 1.7 mph -999.0 mph 28% 0.00 in
13:08 67.8 °F 32.6 °F 23.53 in Calm   -999.0 mph 27% 0.00 in
13:23 70.5 °F 34.9 °F 23.53 in SSW 2.2 mph -999.0 mph 27% 0.00 in
13:38 70.0 °F 33.5 °F 23.53 in SSW 6.3 mph -999.0 mph 26% 0.00 in
13:53 71.1 °F 34.5 °F 23.52 in SSW 2.2 mph -999.0 mph 26% 0.00 in
14:09 69.8 °F 35.2 °F 23.52 in NW 6.3 mph -999.0 mph 28% 0.00 in
14:24 69.4 °F 34.9 °F 23.52 in SSW 4.7 mph -999.0 mph 28% 0.00 in
14:39 67.1 °F 34.6 °F 23.52 in Calm   -999.0 mph 30% 0.00 in
14:54 68.0 °F 35.4 °F 23.51 in Calm   -999.0 mph 30% 0.00 in
15:10 69.6 °F 36.8 °F 23.51 in ENE 2.2 mph -999.0 mph 30% 0.00 in
15:40 69.8 °F 37.0 °F 23.50 in ESE 2.7 mph -999.0 mph 30% 0.00 in
15:55 67.1 °F 36.3 °F 23.49 in South 2.2 mph -999.0 mph 32% 0.00 in
16:10 67.5 °F 37.4 °F 23.49 in NNW 2.7 mph -999.0 mph 33% 0.00 in
16:26 66.2 °F 38.5 °F 23.48 in ESE 1.7 mph -999.0 mph 36% 0.00 in
16:41 67.8 °F 40.6 °F 23.48 in NW 3.2 mph -999.0 mph 37% 0.00 in
16:56 67.6 °F 41.1 °F 23.48 in SE 2.2 mph -999.0 mph 38% 0.00 in
17:12 69.1 °F 42.4 °F 23.48 in North 1.7 mph -999.0 mph 38% 0.00 in
17:27 69.4 °F 42.7 °F 23.47 in SE 4.7 mph -999.0 mph 38% 0.00 in
17:42 66.9 °F 42.4 °F 23.47 in South 3.7 mph -999.0 mph 41% 0.00 in
17:58 67.3 °F 41.5 °F 23.47 in SW 1.7 mph -999.0 mph 39% 0.00 in
18:14 65.7 °F 42.0 °F 23.47 in East 1.7 mph -999.0 mph 42% 0.00 in
18:29 63.3 °F 41.0 °F 23.46 in SSE 3.7 mph -999.0 mph 44% 0.00 in
18:44 60.3 °F 40.5 °F 23.46 in ESE 1.7 mph -999.0 mph 48% 0.00 in
19:00 58.1 °F 40.1 °F 23.46 in Calm   -999.0 mph 51% 0.00 in
19:15 57.0 °F 39.0 °F 23.45 in Calm   -999.0 mph 51% 0.00 in
19:30 55.0 °F 37.2 °F 23.45 in Calm   -999.0 mph 51% 0.00 in
19:45 54.3 °F 36.1 °F 23.45 in SSE 3.2 mph -999.0 mph 50% 0.00 in
20:00 53.2 °F 36.0 °F 23.45 in Calm   -999.0 mph 52% 0.00 in
20:16 52.7 °F 35.6 °F 23.45 in Calm   -999.0 mph 52% 0.00 in
20:31 52.3 °F 33.2 °F 23.46 in Calm   -999.0 mph 48% 0.00 in
20:46 51.8 °F 31.1 °F 23.46 in Calm   -999.0 mph 45% 0.00 in
21:01 51.3 °F 31.7 °F 23.46 in Calm   -999.0 mph 47% 0.00 in
21:16 50.7 °F 30.7 °F 23.46 in Calm   -999.0 mph 46% 0.00 in
21:32 50.7 °F 30.7 °F 23.46 in Calm   -999.0 mph 46% 0.00 in
21:47 49.6 °F 35.9 °F 23.46 in Calm   -999.0 mph 59% 0.00 in
22:02 48.7 °F 36.3 °F 23.46 in Calm   -999.0 mph 62% 0.00 in
22:17 48.2 °F 40.3 °F 23.46 in Calm   -999.0 mph 74% 0.00 in
22:32 47.7 °F 40.5 °F 23.45 in Calm   -999.0 mph 76% 0.00 in
22:48 47.8 °F 37.0 °F 23.45 in Calm   -999.0 mph 66% 0.00 in
23:03 47.5 °F 33.0 °F 23.45 in Calm   -999.0 mph 57% 0.00 in
23:18 46.9 °F 31.1 °F 23.45 in Calm   -999.0 mph 54% 0.00 in
23:33 46.6 °F 30.8 °F 23.45 in Calm   -999.0 mph 54% 0.00 in
23:48 46.8 °F 30.6 °F 23.44 in Calm   -999.0 mph 53% 0.00 in
Big Bear CA Weather